Overview Statistics Trail Chart Weather Telemetry Raw packets
 

This is the latest recevied weather packets stored in our database for station/object IU1OLT-6. If no packets are shown the sender has not sent any weather packets the latest 10 day(s).

<< 16 17 18 19 20 21 22 >>
Time Temp. Humidity Pressure Rain* Wind** Luminosity Snow
1788286980 15.56° C 93% 1015.5 hPa 0 mm - - -
1788286020 15.56° C 93% 1015.3 hPa 0 mm - - -
1788285060 16.67° C 91% 1015.2 hPa 0 mm - - -
1788284100 16.67° C 84% 1015 hPa 0 mm - - -
1788283187 17.22° C 88% 1015 hPa 0 mm - - -
1788282276 17.22° C 88% 1014.9 hPa 0 mm - - -
1788281363 16.67° C 89% 1014.9 hPa 0 mm - - -
1788280452 17.78° C 82% 1015.1 hPa 0 mm - - -
1788279492 18.33° C 84% 1015.1 hPa 0 mm - - -
1788278436 16.67° C 93% 1015.2 hPa 0 mm - - -
1788277476 16.11° C 93% 1015 hPa 0 mm - - -
1788276563 16.67° C 93% 1015.2 hPa 0 mm - - -
1788275652 16.11° C 92% 1015.1 hPa 0 mm - - -
1788274692 15.56° C 95% 1015.3 hPa 0 mm - - -
1788273732 16.11° C 95% 1015.2 hPa 0 mm - - -
1788272772 15.56° C 96% 1015.4 hPa 0 mm - - -
1788271812 16.11° C 97% 1015.4 hPa 0 mm - - -
1788270852 15.56° C 97% 1015.3 hPa 0 mm - - -
1788269892 16.67° C 96% 1015.2 hPa 0 mm - - -
1788268951 16.67° C 97% 1015.3 hPa 0 mm - - -
1788268020 16.67° C 96% 1015.4 hPa 0 mm - - -
1788267108 16.67° C 95% 1015.3 hPa 0 mm - - -
1788266148 17.78° C 88% 1015.3 hPa 0 mm - - -
1788265188 16.67° C 94% 1015.4 hPa 0 mm - - -
1788264228 16.67° C 92% 1015.5 hPa 0 mm - - -

* Rain latest hour (hover to see other rain measurements)
** Current wind speed in m/s (hover to see current wind gust speed)